Time;durP1;ratioP1;P1;durP2;ratioP2;P2;SDS_P1;SDS_P2;PMS_P1;PMS_P2;Temp;Humidity;BMP_temperature;BMP_pressure;BME280_temperature;BME280_humidity;BME280_pressure;Samples;Min_cycle;Max_cycle;Signal;HPM_P1;HPM_P2
2023/10/22 00:00:48;;;;;;;8.07;3.47;;;;;;;12.62;98.98;99555.69;5092577;28;20016;-63
2023/10/22 00:03:16;;;;;;;6.22;3.10;;;;;;;12.61;98.74;99560.16;5091307;28;20027;-63
2023/10/22 00:05:41;;;;;;;4.00;2.90;;;;;;;12.62;98.80;99561.03;5073148;28;20027;-63
2023/10/22 00:08:07;;;;;;;4.70;2.05;;;;;;;12.68;98.33;99565.78;5074243;28;20040;-63
2023/10/22 00:10:32;;;;;;;4.38;3.22;;;;;;;12.63;97.75;99563.53;5074352;28;20074;-63
2023/10/22 00:12:57;;;;;;;5.50;3.22;;;;;;;12.66;97.56;99570.41;5092847;28;20085;-63
2023/10/22 00:15:26;;;;;;;3.55;1.90;;;;;;;12.68;97.46;99579.97;5087736;28;20070;-64
2023/10/22 00:17:53;;;;;;;4.57;2.92;;;;;;;12.66;97.98;99581.09;5092592;28;20024;-64
2023/10/22 00:20:19;;;;;;;7.35;2.50;;;;;;;12.69;97.23;99572.81;5092002;28;20028;-63
2023/10/22 00:22:45;;;;;;;3.38;2.13;;;;;;;12.76;97.09;99583.75;5092400;28;20537;-63
2023/10/22 00:25:11;;;;;;;5.53;2.97;;;;;;;12.71;96.60;99593.03;5091928;28;20024;-63
2023/10/22 00:27:36;;;;;;;4.45;2.90;;;;;;;12.76;96.76;99591.75;5092100;28;20031;-63
2023/10/22 00:30:05;;;;;;;3.58;2.85;;;;;;;12.81;96.40;99602.84;5057353;28;20028;-63
2023/10/22 00:32:32;;;;;;;2.97;2.40;;;;;;;12.78;96.46;99595.97;5092968;28;20024;-64
2023/10/22 00:34:57;;;;;;;3.40;1.90;;;;;;;12.83;96.00;99603.56;5091923;28;20021;-63
2023/10/22 00:37:22;;;;;;;1.88;1.73;;;;;;;12.84;96.10;99602.56;5075462;28;20031;-63
2023/10/22 00:39:50;;;;;;;3.90;2.10;;;;;;;12.89;96.06;99622.50;5074003;28;20027;-63
2023/10/22 00:42:16;;;;;;;5.18;2.70;;;;;;;12.81;96.22;99603.69;5054503;28;20031;-63
2023/10/22 00:44:41;;;;;;;3.25;2.70;;;;;;;12.77;95.78;99612.97;5078603;28;20017;-63
2023/10/22 00:47:08;;;;;;;2.45;1.95;;;;;;;12.88;95.51;99617.28;5084281;28;20125;-63
2023/10/22 00:49:34;;;;;;;3.63;2.90;;;;;;;12.83;95.59;99636.41;5073640;28;20035;-63
2023/10/22 00:52:00;;;;;;;4.15;2.78;;;;;;;12.86;95.20;99635.28;5073905;28;20028;-63
2023/10/22 00:54:26;;;;;;;2.17;2.03;;;;;;;12.92;95.05;99640.06;5091957;28;20012;-63
2023/10/22 00:56:53;;;;;;;3.50;3.13;;;;;;;12.81;95.81;99621.53;5068088;28;20028;-63
2023/10/22 00:59:20;;;;;;;5.53;2.80;;;;;;;12.85;95.92;99629.13;5077142;28;20028;-63
2023/10/22 01:01:46;;;;;;;5.57;3.20;;;;;;;12.81;95.67;99624.19;5077344;28;20044;-63
2023/10/22 01:04:14;;;;;;;2.63;2.13;;;;;;;12.90;95.66;99648.19;5077209;28;20020;-63
2023/10/22 01:06:40;;;;;;;3.00;2.15;;;;;;;12.94;94.81;99638.94;5100033;28;20058;-63
2023/10/22 01:09:06;;;;;;;4.53;3.00;;;;;;;12.96;94.08;99649.44;5101771;28;20028;-63
2023/10/22 01:11:32;;;;;;;4.07;2.40;;;;;;;13.00;94.50;99644.66;5091861;28;20057;-63
2023/10/22 01:14:00;;;;;;;1.98;1.80;;;;;;;13.07;94.11;99648.47;5091748;28;20044;-63
2023/10/22 01:16:28;;;;;;;2.22;2.00;;;;;;;12.90;95.04;99642.84;5073385;28;20536;-63
2023/10/22 01:18:53;;;;;;;6.38;2.70;;;;;;;12.89;94.88;99657.19;5073464;28;20024;-63
2023/10/22 01:21:21;;;;;;;3.60;2.55;;;;;;;12.88;94.67;99652.84;5072955;28;20038;-63
2023/10/22 01:23:48;;;;;;;5.60;3.08;;;;;;;12.90;94.83;99645.53;5092037;28;20028;-63
2023/10/22 01:26:16;;;;;;;3.80;2.90;;;;;;;12.92;94.66;99656.06;5091509;28;20382;-63
2023/10/22 01:28:41;;;;;;;4.32;2.95;;;;;;;12.88;95.00;99662.66;5091069;28;20074;-63
2023/10/22 01:31:14;;;;;;;2.55;2.10;;;;;;;12.94;94.98;99673.63;5091497;28;20417;-63
2023/10/22 01:33:42;;;;;;;2.25;2.05;;;;;;;12.94;95.41;99678.09;5073194;28;20016;-63
2023/10/22 01:36:07;;;;;;;4.28;2.80;;;;;;;12.86;96.22;99686.00;5072964;28;20020;-63
2023/10/22 01:38:35;;;;;;;3.55;2.90;;;;;;;12.80;96.80;99692.72;5089190;28;20046;-63
2023/10/22 01:41:07;;;;;;;3.90;2.05;;;;;;;12.86;98.12;99702.84;5087908;28;20020;-63
2023/10/22 01:43:34;;;;;;;3.58;2.30;;;;;;;12.84;98.54;99707.47;5074406;28;20054;-63
2023/10/22 01:45:59;;;;;;;4.50;3.17;;;;;;;12.73;99.22;99710.25;5091439;28;20074;-63
2023/10/22 01:48:24;;;;;;;4.32;2.97;;;;;;;12.66;99.86;99704.63;5089954;28;20070;-63
2023/10/22 01:50:50;;;;;;;3.22;1.77;;;;;;;12.78;99.58;99718.69;5072894;28;20026;-63
2023/10/22 01:53:15;;;;;;;2.58;2.38;;;;;;;12.68;100.00;99740.03;5090289;28;20075;-63
2023/10/22 01:55:40;;;;;;;4.97;3.05;;;;;;;12.53;100.00;99727.19;5087969;28;20089;-63
2023/10/22 01:58:06;;;;;;;6.47;3.47;;;;;;;12.45;100.00;99734.06;5075742;28;20043;-63
2023/10/22 02:00:32;;;;;;;4.82;2.25;;;;;;;12.52;100.00;99725.53;5072861;28;20043;-63
2023/10/22 02:02:57;;;;;;;4.72;3.17;;;;;;;12.33;100.00;99727.16;5091314;28;20027;-63
2023/10/22 02:05:23;;;;;;;4.05;2.17;;;;;;;12.39;100.00;99736.44;5078002;28;20056;-63
2023/10/22 02:07:51;;;;;;;4.32;2.50;;;;;;;12.42;100.00;99742.34;5071913;28;20040;-63
2023/10/22 02:10:16;;;;;;;5.68;3.67;;;;;;;12.23;100.00;99731.59;5094909;28;20099;-63
2023/10/22 02:12:42;;;;;;;2.65;2.45;;;;;;;12.33;100.00;99742.34;5076619;28;20111;-63
2023/10/22 02:15:08;;;;;;;3.63;2.38;;;;;;;12.25;100.00;99741.16;5077207;28;20015;-63
2023/10/22 02:17:37;;;;;;;5.15;3.50;;;;;;;12.08;100.00;99738.28;5076388;28;20055;-63
2023/10/22 02:20:03;;;;;;;5.97;3.42;;;;;;;12.15;100.00;99758.13;5076184;28;20040;-63
2023/10/22 02:22:28;;;;;;;6.78;3.80;;;;;;;12.11;100.00;99764.69;5076889;28;20058;-63
2023/10/22 02:24:54;;;;;;;5.57;2.20;;;;;;;12.19;100.00;99762.19;5094518;28;20077;-63
2023/10/22 02:27:19;;;;;;;3.92;3.03;;;;;;;12.12;100.00;99774.34;5094520;28;20032;-63
2023/10/22 02:29:44;;;;;;;5.53;2.05;;;;;;;12.16;100.00;99786.44;5094377;28;20028;-63
2023/10/22 02:32:10;;;;;;;2.60;2.38;;;;;;;12.10;100.00;99763.84;5076449;28;20067;-63
2023/10/22 02:34:37;;;;;;;2.67;2.05;;;;;;;12.16;100.00;99776.63;5093714;28;20453;-63
2023/10/22 02:37:05;;;;;;;4.65;2.33;;;;;;;12.14;100.00;99796.41;5073535;28;20031;-63
2023/10/22 02:39:32;;;;;;;6.15;3.38;;;;;;;11.96;100.00;99785.50;5092719;28;20054;-63
2023/10/22 02:41:57;;;;;;;5.20;2.10;;;;;;;12.12;100.00;99796.53;5086361;28;20051;-63
2023/10/22 02:44:25;;;;;;;5.95;3.60;;;;;;;12.00;100.00;99803.78;5067762;28;20460;-63
2023/10/22 02:46:50;;;;;;;3.72;2.20;;;;;;;12.02;100.00;99809.78;5065656;28;20413;-63
2023/10/22 02:49:16;;;;;;;3.38;2.40;;;;;;;12.05;100.00;99819.34;5103214;28;20020;-64
2023/10/22 02:51:41;;;;;;;8.32;4.22;;;;;;;11.94;100.00;99822.09;5089813;28;20028;-63
2023/10/22 02:54:09;;;;;;;5.80;3.38;;;;;;;11.88;100.00;99811.94;5068336;28;20106;-63
2023/10/22 02:56:34;;;;;;;3.67;2.25;;;;;;;12.02;100.00;99830.28;5074044;28;20032;-63
2023/10/22 02:58:59;;;;;;;2.83;2.38;;;;;;;12.04;100.00;99836.34;5056400;28;20035;-63
2023/10/22 03:01:26;;;;;;;6.50;3.65;;;;;;;12.00;100.00;99843.75;5075479;28;20055;-63
2023/10/22 03:03:52;;;;;;;6.68;3.60;;;;;;;11.93;100.00;99861.22;5074072;28;20043;-63
2023/10/22 03:06:17;;;;;;;2.42;2.28;;;;;;;12.11;100.00;99850.81;5061743;28;20429;-62
2023/10/22 03:08:42;;;;;;;4.40;2.83;;;;;;;12.04;100.00;99855.81;5080865;28;20089;-63
2023/10/22 03:11:16;;;;;;;3.58;2.53;;;;;;;11.95;100.00;99848.63;5084919;28;20427;-64
2023/10/22 03:13:41;;;;;;;2.53;2.33;;;;;;;12.00;100.00;99870.41;5061224;28;20027;-63
2023/10/22 03:16:17;;;;;;;7.43;3.88;;;;;;;11.88;100.00;99859.91;5076275;28;20081;-63
2023/10/22 03:18:44;;;;;;;5.60;3.80;;;;;;;11.89;100.00;99867.78;5073570;28;20032;-63
2023/10/22 03:21:14;;;;;;;8.05;2.80;;;;;;;11.99;100.00;99875.84;5085950;28;20032;-63
2023/10/22 03:23:43;;;;;;;5.53;3.80;;;;;;;11.91;100.00;99880.97;5091355;28;20032;-63
2023/10/22 03:26:11;;;;;;;4.88;4.07;;;;;;;11.83;100.00;99890.44;5086314;28;20043;-63
2023/10/22 03:28:37;;;;;;;5.90;3.13;;;;;;;11.86;100.00;99884.03;5073464;28;20029;-64
2023/10/22 03:31:06;;;;;;;5.50;3.10;;;;;;;11.85;100.00;99902.75;5089517;28;20030;-63
2023/10/22 03:33:32;;;;;;;4.15;3.38;;;;;;;11.98;100.00;99912.31;5085073;28;20077;-63
2023/10/22 03:36:00;;;;;;;4.82;2.72;;;;;;;11.87;100.00;99919.50;5076405;28;20118;-63
2023/10/22 03:38:26;;;;;;;9.55;5.07;;;;;;;11.71;100.00;99917.25;5067441;28;20109;-63
2023/10/22 03:41:05;;;;;;;6.80;3.85;;;;;;;11.85;100.00;99927.63;5082342;28;20055;-63
2023/10/22 03:43:31;;;;;;;6.32;4.00;;;;;;;11.85;100.00;99937.41;5090876;28;20372;-63
2023/10/22 03:46:00;;;;;;;6.43;3.45;;;;;;;11.75;100.00;99940.00;5091918;28;20054;-63
2023/10/22 03:48:29;;;;;;;4.32;3.70;;;;;;;11.70;100.00;99944.84;5091931;28;20107;-63
2023/10/22 03:50:55;;;;;;;6.93;4.07;;;;;;;11.74;100.00;99951.63;5091189;28;20028;-63
2023/10/22 03:53:23;;;;;;;8.50;5.85;;;;;;;11.57;100.00;99953.00;5092587;28;20024;-63
2023/10/22 03:55:49;;;;;;;6.50;3.80;;;;;;;11.49;100.00;99929.66;5083624;28;20024;-63
2023/10/22 03:58:18;;;;;;;5.10;3.88;;;;;;;11.68;100.00;99960.97;5076471;28;20040;-63
2023/10/22 04:00:43;;;;;;;8.88;4.30;;;;;;;11.55;100.00;99954.94;5092450;28;20028;-63
2023/10/22 04:03:08;;;;;;;6.13;4.07;;;;;;;11.64;100.00;99987.97;5074703;28;20038;-63
2023/10/22 04:05:34;;;;;;;8.00;6.65;;;;;;;11.55;100.00;99985.06;5078827;28;20380;-63
2023/10/22 04:07:59;;;;;;;7.78;5.50;;;;;;;11.52;100.00;99982.66;5092231;28;20499;-63
2023/10/22 04:10:27;;;;;;;7.30;6.28;;;;;;;11.58;100.00;99991.97;5074157;28;20034;-63
2023/10/22 04:12:53;;;;;;;6.82;3.78;;;;;;;11.62;100.00;99992.56;5092215;28;20054;-63
2023/10/22 04:15:18;;;;;;;4.45;4.05;;;;;;;11.65;100.00;99997.63;5074287;28;20103;-64
2023/10/22 04:17:47;;;;;;;7.15;4.53;;;;;;;11.59;100.00;99997.19;5092553;28;20028;-63
2023/10/22 04:20:12;;;;;;;4.82;4.05;;;;;;;11.60;100.00;100006.88;5061766;28;20040;-63
2023/10/22 04:22:40;;;;;;;10.10;6.50;;;;;;;11.51;100.00;100010.28;5091075;28;20665;-63
2023/10/22 04:25:06;;;;;;;8.20;6.38;;;;;;;11.52;100.00;100019.09;5064655;28;20098;-63
2023/10/22 04:27:31;;;;;;;8.52;6.38;;;;;;;11.40;100.00;100020.94;5072349;28;20483;-63
2023/10/22 04:29:56;;;;;;;7.55;6.53;;;;;;;11.40;100.00;100026.25;5081661;28;20085;-63
2023/10/22 04:32:23;;;;;;;7.78;5.10;;;;;;;11.48;100.00;100020.34;5062556;28;20447;-64
2023/10/22 04:34:48;;;;;;;9.02;3.78;;;;;;;11.51;100.00;100031.56;5079000;28;20021;-64
2023/10/22 04:37:17;;;;;;;7.25;6.18;;;;;;;11.40;100.00;100028.06;5075674;28;20033;-63
2023/10/22 04:39:43;;;;;;;4.75;3.92;;;;;;;11.48;100.00;100029.16;5067276;28;20020;-64
2023/10/22 04:42:10;;;;;;;9.50;4.72;;;;;;;11.43;100.00;100042.00;5090969;28;20103;-63
2023/10/22 04:44:36;;;;;;;3.75;3.42;;;;;;;11.41;100.00;100043.91;5089400;28;20081;-64
2023/10/22 04:47:02;;;;;;;6.53;5.22;;;;;;;11.24;100.00;100047.94;5090853;28;20032;-63
2023/10/22 04:49:31;;;;;;;6.15;5.35;;;;;;;11.18;100.00;100048.41;5090127;28;20467;-63
2023/10/22 04:51:57;;;;;;;7.38;3.25;;;;;;;11.30;100.00;100060.75;5091187;28;20028;-63
2023/10/22 04:54:24;;;;;;;10.45;3.88;;;;;;;11.27;100.00;100063.66;5091957;28;20103;-63
2023/10/22 04:56:50;;;;;;;6.72;5.05;;;;;;;11.13;100.00;100059.41;5079822;28;20028;-63
2023/10/22 04:59:15;;;;;;;9.45;5.57;;;;;;;11.07;100.00;100056.38;5083079;28;20064;-63
2023/10/22 05:01:41;;;;;;;7.85;3.83;;;;;;;11.19;100.00;100070.56;5071173;28;20024;-63
2023/10/22 05:04:06;;;;;;;6.32;3.70;;;;;;;11.17;100.00;100072.47;5091749;28;20032;-63
2023/10/22 05:06:32;;;;;;;7.75;5.53;;;;;;;11.03;100.00;100081.53;5056849;28;20555;-63
2023/10/22 05:08:57;;;;;;;6.85;3.50;;;;;;;11.12;100.00;100080.84;5082203;28;20024;-63
2023/10/22 05:11:22;;;;;;;3.85;3.42;;;;;;;11.13;100.00;100090.50;5090582;28;20032;-63
2023/10/22 05:13:50;;;;;;;6.68;5.45;;;;;;;10.99;100.00;100093.38;5090732;28;20032;-64
2023/10/22 05:16:15;;;;;;;4.90;3.97;;;;;;;11.00;100.00;100087.09;5091672;28;20023;-63
2023/10/22 05:18:43;;;;;;;8.55;4.38;;;;;;;11.01;100.00;100097.63;5090263;28;20027;-64
2023/10/22 05:21:09;;;;;;;8.27;5.20;;;;;;;10.90;100.00;100098.44;5075630;28;20059;-63
2023/10/22 05:23:35;;;;;;;5.53;3.67;;;;;;;11.00;100.00;100106.59;5066499;28;20071;-63
2023/10/22 05:26:07;;;;;;;4.78;3.72;;;;;;;10.98;100.00;100112.97;5072413;28;20509;-63
2023/10/22 05:28:32;;;;;;;4.53;3.53;;;;;;;10.99;100.00;100120.84;5064468;28;20080;-63
2023/10/22 05:30:58;;;;;;;5.65;3.47;;;;;;;10.95;100.00;100127.38;5073528;28;20023;-63
2023/10/22 05:33:23;;;;;;;4.35;3.85;;;;;;;10.93;100.00;100118.66;5086816;28;20594;-64
2023/10/22 05:35:48;;;;;;;7.53;5.07;;;;;;;10.79;100.00;100119.69;5072717;28;20036;-63
2023/10/22 05:38:14;;;;;;;8.98;5.32;;;;;;;10.75;100.00;100122.72;5091714;28;20020;-63
2023/10/22 05:40:39;;;;;;;4.10;3.40;;;;;;;10.84;100.00;100122.00;5091277;28;20031;-64
2023/10/22 05:43:05;;;;;;;7.78;5.50;;;;;;;10.67;100.00;100121.44;5092740;28;20042;-63
2023/10/22 05:45:30;;;;;;;7.47;5.47;;;;;;;10.81;100.00;100140.88;5091912;28;20041;-63
2023/10/22 05:47:55;;;;;;;5.63;3.55;;;;;;;10.82;100.00;100150.53;5077476;28;20036;-63
2023/10/22 05:50:21;;;;;;;4.63;3.20;;;;;;;10.81;100.00;100146.19;5093834;28;20028;-64
2023/10/22 05:52:50;;;;;;;3.88;3.55;;;;;;;10.80;100.00;100148.00;5095132;28;20028;-64
2023/10/22 05:55:15;;;;;;;7.40;3.33;;;;;;;10.77;100.00;100150.03;5057724;28;20074;-64
2023/10/22 05:57:42;;;;;;;3.83;3.22;;;;;;;10.76;100.00;100157.16;5093012;28;20024;-63
2023/10/22 06:00:08;;;;;;;5.32;3.85;;;;;;;10.74;100.00;100168.91;5076981;28;20067;-63
2023/10/22 06:02:33;;;;;;;5.20;3.60;;;;;;;10.72;100.00;100171.66;5094948;28;20606;-64
2023/10/22 06:04:59;;;;;;;4.72;3.45;;;;;;;10.67;100.00;100164.00;5076129;28;20028;-63
2023/10/22 06:07:25;;;;;;;3.45;3.15;;;;;;;10.69;100.00;100170.06;5094440;28;20394;-63
2023/10/22 06:09:50;;;;;;;4.65;3.65;;;;;;;10.66;100.00;100180.94;5096250;28;20020;-64
2023/10/22 06:12:15;;;;;;;7.78;3.20;;;;;;;10.64;100.00;100190.81;5101136;28;20020;-63
2023/10/22 06:14:41;;;;;;;3.65;3.35;;;;;;;10.63;100.00;100194.47;5115386;28;20012;-64
2023/10/22 06:17:06;;;;;;;4.80;2.97;;;;;;;10.64;100.00;100196.16;5097036;28;20078;-63
2023/10/22 06:19:34;;;;;;;4.13;3.05;;;;;;;10.66;100.00;100204.88;5072989;28;20023;-63
2023/10/22 06:22:02;;;;;;;3.95;3.47;;;;;;;10.63;100.00;100196.28;5093265;28;20027;-64
2023/10/22 06:24:27;;;;;;;3.58;3.00;;;;;;;10.69;100.00;100203.81;5074869;28;20471;-63
2023/10/22 06:26:55;;;;;;;4.88;3.40;;;;;;;10.73;100.00;100215.91;5087852;28;20020;-63
2023/10/22 06:29:23;;;;;;;5.85;3.72;;;;;;;10.77;100.00;100211.22;5091063;28;20024;-63
2023/10/22 06:31:48;;;;;;;13.75;7.78;;;;;;;10.80;100.00;100219.81;5078904;28;20024;-63
2023/10/22 06:34:13;;;;;;;6.88;5.32;;;;;;;10.78;100.00;100221.72;5085351;28;20029;-63
2023/10/22 06:36:39;;;;;;;3.55;3.15;;;;;;;10.84;100.00;100236.41;5078674;28;20029;-63
2023/10/22 06:39:04;;;;;;;5.88;3.00;;;;;;;10.85;100.00;100238.09;5076639;28;20115;-63
2023/10/22 06:41:30;;;;;;;3.20;2.75;;;;;;;10.84;100.00;100239.06;5066255;28;20028;-63
2023/10/22 06:43:55;;;;;;;5.78;4.05;;;;;;;10.81;100.00;100255.25;5092951;28;20081;-63
2023/10/22 06:46:21;;;;;;;3.33;3.03;;;;;;;10.93;100.00;100243.69;5093518;28;20352;-63
2023/10/22 06:48:47;;;;;;;5.93;3.70;;;;;;;10.85;100.00;100238.97;5074977;28;20027;-63
2023/10/22 06:51:15;;;;;;;3.63;3.33;;;;;;;10.97;100.00;100257.59;5093662;28;20109;-63
2023/10/22 06:53:45;;;;;;;7.43;3.72;;;;;;;10.96;100.00;100256.75;5090459;28;20016;-63
2023/10/22 06:56:12;;;;;;;3.40;2.67;;;;;;;10.99;100.00;100272.50;5093072;28;20107;-63
2023/10/22 06:58:38;;;;;;;3.40;2.42;;;;;;;11.00;100.00;100274.22;5093809;28;20028;-63
2023/10/22 07:01:09;;;;;;;3.55;2.65;;;;;;;11.05;100.00;100287.16;5093499;28;20501;-63
2023/10/22 07:03:38;;;;;;;5.63;3.10;;;;;;;11.06;100.00;100273.75;5092694;28;20024;-63
2023/10/22 07:06:03;;;;;;;2.38;2.17;;;;;;;11.14;100.00;100289.97;5076811;28;20024;-63
2023/10/22 07:08:29;;;;;;;2.90;2.70;;;;;;;11.06;100.00;100272.88;5083554;28;20055;-62
2023/10/22 07:10:58;;;;;;;5.72;3.67;;;;;;;11.02;100.00;100290.06;5087288;28;20028;-63
2023/10/22 07:13:24;;;;;;;6.50;2.95;;;;;;;11.12;100.00;100296.41;5105206;28;20054;-63
2023/10/22 07:15:50;;;;;;;9.55;2.65;;;;;;;11.13;100.00;100300.75;5076750;28;20035;-63
2023/10/22 07:18:16;;;;;;;6.72;3.30;;;;;;;11.12;100.00;100310.56;5090751;28;20394;-63
2023/10/22 07:20:41;;;;;;;7.63;3.83;;;;;;;11.04;100.00;100322.72;5092743;28;20030;-63
2023/10/22 07:23:07;;;;;;;2.35;2.25;;;;;;;11.09;100.00;100326.75;5091544;28;20043;-63
2023/10/22 07:25:33;;;;;;;8.90;2.88;;;;;;;11.10;100.00;100331.09;5093153;28;20027;-63
2023/10/22 07:27:59;;;;;;;4.57;2.58;;;;;;;11.02;100.00;100329.97;5093620;28;20027;-63
2023/10/22 07:30:25;;;;;;;3.88;2.70;;;;;;;11.04;100.00;100333.38;5091988;28;20453;-63
2023/10/22 07:32:53;;;;;;;7.60;3.40;;;;;;;11.06;100.00;100348.28;5072334;28;20115;-63
2023/10/22 07:35:20;;;;;;;6.85;4.13;;;;;;;10.93;100.00;100343.94;5088037;28;20073;-64
2023/10/22 07:37:45;;;;;;;5.88;2.75;;;;;;;11.00;100.00;100348.72;5071304;28;20069;-63
2023/10/22 07:40:15;;;;;;;7.47;3.10;;;;;;;11.04;100.00;100357.31;5092659;28;20441;-63
2023/10/22 07:42:41;;;;;;;7.25;3.25;;;;;;;11.05;100.00;100359.84;5091776;28;20062;-63
2023/10/22 07:45:08;;;;;;;7.82;3.75;;;;;;;10.97;100.00;100356.06;5092320;28;20031;-63
2023/10/22 07:47:33;;;;;;;4.75;3.13;;;;;;;11.08;100.00;100369.44;5074360;28;20044;-63
2023/10/22 07:49:59;;;;;;;4.95;2.50;;;;;;;11.15;100.00;100376.03;5074450;28;20041;-63
2023/10/22 07:52:26;;;;;;;4.28;2.58;;;;;;;11.09;100.00;100372.00;5074788;28;20093;-63
2023/10/22 07:54:52;;;;;;;3.08;2.78;;;;;;;11.17;100.00;100381.22;5092810;28;20024;-63
2023/10/22 07:57:18;;;;;;;5.43;3.08;;;;;;;11.22;100.00;100382.59;5092709;28;20097;-63
2023/10/22 07:59:44;;;;;;;7.13;3.78;;;;;;;11.21;100.00;100374.72;5074228;28;20034;-63
2023/10/22 08:02:10;;;;;;;3.25;2.50;;;;;;;11.33;100.00;100376.50;5092888;28;20023;-63
2023/10/22 08:04:37;;;;;;;3.53;2.88;;;;;;;11.42;100.00;100381.13;5092469;28;20040;-63
2023/10/22 08:07:03;;;;;;;6.18;4.35;;;;;;;11.41;100.00;100387.41;5092552;28;20047;-63
2023/10/22 08:09:29;;;;;;;6.53;4.43;;;;;;;11.49;100.00;100381.50;5074623;28;20024;-63
2023/10/22 08:11:54;;;;;;;5.65;3.42;;;;;;;11.62;100.00;100382.31;5092541;28;20085;-63
2023/10/22 08:14:22;;;;;;;4.68;2.47;;;;;;;11.69;100.00;100386.19;5074248;28;20023;-63
2023/10/22 08:16:48;;;;;;;4.05;2.50;;;;;;;11.78;100.00;100382.84;5092340;28;20020;-63
2023/10/22 08:19:14;;;;;;;3.67;2.70;;;;;;;11.85;100.00;100385.03;5074225;28;20032;-63
2023/10/22 08:21:41;;;;;;;8.00;4.43;;;;;;;11.83;100.00;100383.34;5092105;28;20024;-63
2023/10/22 08:24:07;;;;;;;8.55;4.50;;;;;;;11.87;100.00;100381.31;5092385;28;20032;-63
2023/10/22 08:26:32;;;;;;;6.85;3.30;;;;;;;11.97;100.00;100389.47;5092272;28;20035;-63
2023/10/22 08:28:58;;;;;;;7.68;6.45;;;;;;;12.00;100.00;100395.44;5091578;28;20027;-63
2023/10/22 08:31:23;;;;;;;3.35;3.00;;;;;;;12.12;100.00;100398.09;5092304;28;20063;-63
2023/10/22 08:33:49;;;;;;;6.03;2.70;;;;;;;12.20;100.00;100396.53;5092373;28;20069;-63
2023/10/22 08:36:15;;;;;;;9.30;6.30;;;;;;;12.27;100.00;100405.78;5073411;28;20034;-63
2023/10/22 08:38:43;;;;;;;4.50;2.92;;;;;;;12.39;100.00;100411.13;5092251;28;20035;-64
2023/10/22 08:41:23;;;;;;;4.10;3.33;;;;;;;12.45;100.00;100413.31;5092013;28;20024;-63
2023/10/22 08:43:49;;;;;;;7.18;4.68;;;;;;;12.46;100.00;100423.84;5073459;28;20103;-63
2023/10/22 08:46:15;;;;;;;5.70;4.60;;;;;;;12.53;100.00;100426.94;5091914;28;20147;-63
2023/10/22 08:48:41;;;;;;;3.78;2.70;;;;;;;12.64;100.00;100431.41;5091683;28;20391;-63
2023/10/22 08:51:10;;;;;;;8.80;3.50;;;;;;;12.66;100.00;100424.97;5073264;28;20028;-63
2023/10/22 08:53:36;;;;;;;4.25;2.92;;;;;;;12.66;100.00;100435.66;5091704;28;20028;-64
2023/10/22 08:56:02;;;;;;;9.25;4.10;;;;;;;12.56;100.00;100434.69;5091482;28;20027;-63
2023/10/22 08:58:28;;;;;;;5.90;4.15;;;;;;;12.55;100.00;100435.63;5073352;28;20559;-63
2023/10/22 09:00:53;;;;;;;5.95;4.03;;;;;;;12.60;100.00;100440.63;5091430;28;20107;-63
2023/10/22 09:03:21;;;;;;;4.32;2.72;;;;;;;12.70;100.00;100438.91;5073543;28;20097;-63
2023/10/22 09:05:48;;;;;;;5.00;3.60;;;;;;;12.65;100.00;100436.63;5073286;28;20114;-63
2023/10/22 09:08:15;;;;;;;8.68;4.78;;;;;;;12.68;100.00;100448.88;5091270;28;20456;-63
2023/10/22 09:10:41;;;;;;;9.88;5.03;;;;;;;12.72;100.00;100456.50;5091733;28;20035;-63
2023/10/22 09:13:06;;;;;;;4.28;3.00;;;;;;;12.84;100.00;100457.38;5073557;28;20073;-63
2023/10/22 09:15:41;;;;;;;7.38;4.60;;;;;;;12.78;100.00;100452.50;5073447;28;20028;-63
2023/10/22 09:18:07;;;;;;;4.15;2.95;;;;;;;12.73;100.00;100436.88;5073080;28;20110;-63
2023/10/22 09:20:34;;;;;;;5.65;4.82;;;;;;;12.77;100.00;100453.50;5090720;28;20119;-63
2023/10/22 09:23:15;;;;;;;3.72;3.42;;;;;;;12.91;100.00;100460.41;5073874;28;20047;-63
2023/10/22 09:25:42;;;;;;;4.22;3.15;;;;;;;12.86;100.00;100458.09;5091556;28;20020;-63
2023/10/22 09:28:28;;;;;;;5.65;4.88;;;;;;;12.78;100.00;100455.19;5091182;28;20058;-63
2023/10/22 09:30:58;;;;;;;7.47;4.60;;;;;;;12.83;100.00;100470.84;5056646;28;20107;-63
2023/10/22 09:33:38;;;;;;;5.93;4.50;;;;;;;12.84;100.00;100478.72;5091301;28;20478;-63
2023/10/22 09:36:11;;;;;;;3.78;3.40;;;;;;;12.87;100.00;100481.16;5090954;28;20055;-63
2023/10/22 09:38:47;;;;;;;8.07;3.22;;;;;;;12.89;100.00;100475.69;5091539;28;20030;-63
2023/10/22 09:41:26;;;;;;;7.68;4.80;;;;;;;12.89;100.00;100481.88;5073191;28;20048;-63
2023/10/22 09:43:53;;;;;;;5.88;4.55;;;;;;;12.90;100.00;100488.91;5073196;28;20032;-63
2023/10/22 09:46:19;;;;;;;5.75;5.25;;;;;;;12.87;100.00;100493.66;5091063;28;20028;-63
2023/10/22 09:48:48;;;;;;;8.60;3.65;;;;;;;12.98;100.00;100500.81;5073210;28;20479;-63
2023/10/22 09:51:17;;;;;;;6.43;5.00;;;;;;;12.88;100.00;100501.56;5090837;28;20026;-63
2023/10/22 09:53:51;;;;;;;5.93;5.35;;;;;;;12.85;100.00;100515.13;5090931;28;20278;-64
2023/10/22 09:56:20;;;;;;;4.78;4.07;;;;;;;12.94;100.00;100516.22;5090900;28;20035;-63
2023/10/22 09:58:48;;;;;;;8.63;5.40;;;;;;;12.85;100.00;100520.47;5091158;28;20398;-63
2023/10/22 10:01:14;;;;;;;7.85;5.43;;;;;;;12.83;100.00;100525.06;5091221;28;20035;-63
2023/10/22 10:03:43;;;;;;;5.68;5.13;;;;;;;12.86;100.00;100511.47;5090646;28;20109;-63
2023/10/22 10:06:09;;;;;;;5.15;4.00;;;;;;;13.00;100.00;100517.53;5090785;28;20395;-63
2023/10/22 10:08:37;;;;;;;6.78;3.88;;;;;;;13.01;100.00;100516.59;5090988;28;20560;-63
2023/10/22 10:11:08;;;;;;;6.35;5.75;;;;;;;12.91;100.00;100525.31;5091002;28;20016;-63
2023/10/22 10:13:37;;;;;;;5.13;4.63;;;;;;;12.92;100.00;100511.00;5090617;28;20526;-63
2023/10/22 10:16:06;;;;;;;4.10;3.70;;;;;;;12.99;100.00;100522.03;5091233;28;20073;-63
2023/10/22 10:19:03;;;;;;;6.65;5.95;;;;;;;12.97;100.00;100526.69;5091189;28;20020;-63
2023/10/22 10:21:36;;;;;;;8.13;3.67;;;;;;;13.01;100.00;100530.78;5090857;28;20024;-63
2023/10/22 10:24:19;;;;;;;8.02;5.05;;;;;;;12.93;100.00;100528.72;5090830;28;20031;-63
2023/10/22 10:26:45;;;;;;;4.15;3.78;;;;;;;13.07;100.00;100532.13;5091006;28;20031;-63
2023/10/22 10:29:15;;;;;;;6.13;5.38;;;;;;;12.90;100.00;100530.78;5091659;28;20020;-63
2023/10/22 10:31:45;;;;;;;6.07;4.72;;;;;;;12.94;100.00;100543.78;5094198;28;20164;-63
2023/10/22 10:34:31;;;;;;;6.03;5.13;;;;;;;12.97;100.00;100545.38;5076399;28;20095;-63
2023/10/22 10:36:57;;;;;;;5.90;5.40;;;;;;;12.99;100.00;100545.22;5076200;28;20512;-63
2023/10/22 10:39:35;;;;;;;8.48;5.85;;;;;;;13.04;100.00;100551.91;5094401;28;20479;-63
2023/10/22 10:42:00;;;;;;;6.57;5.65;;;;;;;13.07;100.00;100550.81;5094416;28;20390;-63
2023/10/22 10:44:29;;;;;;;3.97;3.60;;;;;;;13.19;100.00;100549.84;5076101;28;20028;-63
2023/10/22 10:46:55;;;;;;;4.20;3.60;;;;;;;13.17;100.00;100551.78;5094295;28;20028;-63
2023/10/22 10:49:53;;;;;;;7.85;5.05;;;;;;;13.14;100.00;100552.88;5094186;28;20475;-63
2023/10/22 10:52:20;;;;;;;10.77;5.30;;;;;;;13.11;100.00;100555.78;5093727;28;20028;-63
2023/10/22 10:55:18;;;;;;;6.50;5.50;;;;;;;13.15;100.00;100545.75;5093820;28;20424;-63
2023/10/22 10:57:55;;;;;;;7.85;5.70;;;;;;;13.15;100.00;100551.91;5094090;28;20028;-63
2023/10/22 11:00:28;;;;;;;6.47;4.18;;;;;;;13.27;100.00;100557.31;5093913;28;20027;-63
2023/10/22 11:02:55;;;;;;;11.00;5.70;;;;;;;13.22;100.00;100549.59;5093483;28;20111;-63
2023/10/22 11:05:31;;;;;;;5.88;4.97;;;;;;;13.30;100.00;100557.91;5093137;28;20048;-63
2023/10/22 11:07:57;;;;;;;4.57;3.58;;;;;;;13.47;100.00;100550.34;5073445;28;20082;-63
2023/10/22 11:10:23;;;;;;;7.13;5.68;;;;;;;13.51;100.00;100552.66;5073730;28;20090;-63
2023/10/22 11:12:51;;;;;;;6.57;4.93;;;;;;;13.48;100.00;100544.06;5073744;28;20025;-63
2023/10/22 11:15:16;;;;;;;6.95;5.03;;;;;;;13.52;100.00;100545.50;5073410;28;20384;-63
2023/10/22 11:17:42;;;;;;;6.55;5.45;;;;;;;13.50;100.00;100548.31;5089489;28;20036;-63
2023/10/22 11:20:09;;;;;;;5.57;5.07;;;;;;;13.48;100.00;100560.94;5058509;28;20020;-63
2023/10/22 11:22:38;;;;;;;7.68;5.20;;;;;;;13.51;100.00;100566.03;5075326;28;20108;-63